createdAt,value
2018-04-22T00:01:33.206Z,3.65
2018-04-22T00:07:23.926Z,3.62
2018-04-22T00:13:14.650Z,3.25
2018-04-22T00:19:05.323Z,3.19
2018-04-22T00:24:55.973Z,3.77
2018-04-22T00:30:46.712Z,3.2
2018-04-22T00:36:37.426Z,3.26
2018-04-22T00:42:28.027Z,3.48
2018-04-22T00:48:18.734Z,3.55
2018-04-22T00:54:09.407Z,3.66
2018-04-22T01:00:00.126Z,3.67
2018-04-22T01:05:50.800Z,3.31
2018-04-22T01:11:41.564Z,3.16
2018-04-22T01:17:32.164Z,3.87
2018-04-22T01:23:22.923Z,3.62
2018-04-22T01:29:13.564Z,3.23
2018-04-22T01:35:04.224Z,3.04
2018-04-22T01:40:54.934Z,3.34
2018-04-22T01:46:45.638Z,3.69
2018-04-22T01:52:36.312Z,3.24
2018-04-22T01:58:26.998Z,3.94
2018-04-22T02:04:17.639Z,3.53
2018-04-22T02:10:08.364Z,4.04
2018-04-22T02:15:59.038Z,3.09
2018-04-22T02:21:49.696Z,3.75
2018-04-22T02:27:40.405Z,3.89
2018-04-22T02:33:31.129Z,3.85
2018-04-22T02:39:21.778Z,3.21
2018-04-22T02:45:12.446Z,3.84
2018-04-22T02:51:03.107Z,3.85
2018-04-22T02:56:53.808Z,3.5
2018-04-22T03:02:44.536Z,3.47
2018-04-22T03:08:35.184Z,3.99
2018-04-22T03:14:25.860Z,3.63
2018-04-22T03:20:16.529Z,4.46
2018-04-22T03:26:07.226Z,5.5
2018-04-22T03:31:57.899Z,5.96
2018-04-22T03:37:48.544Z,9.62
2018-04-22T03:43:39.252Z,9.6
2018-04-22T03:49:29.925Z,10.11
2018-04-22T03:55:20.581Z,9.3
2018-04-22T04:01:11.246Z,5.22
2018-04-22T04:07:01.978Z,5.61
2018-04-22T04:12:52.630Z,8.29
2018-04-22T04:18:43.285Z,10.54
2018-04-22T04:24:33.987Z,10.71
2018-04-22T04:30:24.664Z,10.07
2018-04-22T04:36:15.365Z,10.21
2018-04-22T04:42:05.990Z,7.89
2018-04-22T04:47:56.685Z,6.76
2018-04-22T04:53:47.380Z,37.27
2018-04-22T04:59:38.046Z,71.26
2018-04-22T05:05:28.717Z,55.22
2018-04-22T05:11:19.348Z,49.59
2018-04-22T05:17:10.074Z,52.88
2018-04-22T05:23:00.704Z,40.64
2018-04-22T05:28:51.388Z,63.16
2018-04-22T05:34:42.031Z,26.61
2018-04-22T05:40:32.718Z,17.52
2018-04-22T05:46:23.434Z,6.5
2018-04-22T05:52:14.070Z,7.36
2018-04-22T05:58:04.745Z,10.65
2018-04-22T06:03:55.433Z,10.87
2018-04-22T06:09:46.149Z,10.64
2018-04-22T06:15:36.779Z,11.26
2018-04-22T06:21:27.441Z,12.41
2018-04-22T06:27:18.137Z,10.3
2018-04-22T06:33:08.809Z,9.66
2018-04-22T06:38:59.507Z,9.22
2018-04-22T06:44:50.175Z,9.01
2018-04-22T06:50:40.828Z,10.38
2018-04-22T06:56:31.505Z,10.24
2018-04-22T07:02:22.169Z,10.88
2018-04-22T07:08:12.871Z,11.39
2018-04-22T07:14:03.549Z,9.4
2018-04-22T07:19:54.227Z,9.18
2018-04-22T07:25:44.938Z,9.64
2018-04-22T07:31:35.619Z,9.83
2018-04-22T07:37:26.364Z,10.8
2018-04-22T07:43:16.944Z,12.21
2018-04-22T07:49:07.653Z,11.61
2018-04-22T07:54:58.340Z,11.64
2018-04-22T08:00:49.044Z,11.23
2018-04-22T08:06:39.750Z,10.1
2018-04-22T08:12:30.440Z,9.91
2018-04-22T08:18:21.141Z,9.59
2018-04-22T08:24:11.811Z,9.29
2018-04-22T08:30:02.524Z,8.6
2018-04-22T08:35:53.238Z,7.85
2018-04-22T08:41:43.954Z,8.19
2018-04-22T08:47:34.655Z,7.87
2018-04-22T08:53:25.370Z,6.47
2018-04-22T08:59:16.090Z,5.92
2018-04-22T09:05:06.834Z,5.43
2018-04-22T09:10:57.576Z,5.39
2018-04-22T09:16:48.247Z,5.98
2018-04-22T09:22:38.978Z,5.64
2018-04-22T09:28:29.686Z,5.7
2018-04-22T09:34:20.391Z,5.46
2018-04-22T09:40:11.119Z,4.46
2018-04-22T09:46:01.945Z,5.19
2018-04-22T09:51:52.613Z,5.45
2018-04-22T09:57:43.330Z,4.87
2018-04-22T10:03:34.125Z,3.88
2018-04-22T10:09:24.788Z,4.34
2018-04-22T10:15:15.544Z,3.72
2018-04-22T10:21:06.290Z,3.79
2018-04-22T10:26:57.011Z,4.01
2018-04-22T10:32:47.741Z,4.81
2018-04-22T10:38:38.494Z,4.96
2018-04-22T10:44:29.218Z,5.28
2018-04-22T10:50:19.985Z,4.76
2018-04-22T10:56:10.705Z,6.62
2018-04-22T11:02:01.502Z,7.41
2018-04-22T11:07:52.234Z,6.58
2018-04-22T11:13:42.983Z,7.07
2018-04-22T11:19:33.744Z,6.1
2018-04-22T11:25:24.520Z,7.65
2018-04-22T11:31:15.248Z,6.26
2018-04-22T11:37:06.025Z,5.95
2018-04-22T11:42:56.818Z,4.67
2018-04-22T11:48:47.569Z,3.94
2018-04-22T11:54:38.322Z,4.5
2018-04-22T12:00:29.128Z,3.65
2018-04-22T12:06:19.811Z,5.69
2018-04-22T12:12:10.601Z,4.21
2018-04-22T12:18:01.367Z,3.97
2018-04-22T12:23:52.170Z,3.94
2018-04-22T12:29:42.896Z,4.1
2018-04-22T12:35:33.720Z,4.67
2018-04-22T12:41:24.403Z,4.54
2018-04-22T12:47:15.227Z,3.98
2018-04-22T12:53:06.023Z,4.1
2018-04-22T12:58:56.700Z,3.65
2018-04-22T13:04:47.532Z,4.81
2018-04-22T13:10:38.281Z,4.85
2018-04-22T13:16:29.130Z,3.48
2018-04-22T13:22:19.789Z,3.04
2018-04-22T13:28:10.564Z,3.08
2018-04-22T13:34:01.374Z,3.51
2018-04-22T13:39:52.105Z,2.86
2018-04-22T13:45:42.891Z,2.81
2018-04-22T13:51:33.661Z,2.74
2018-04-22T13:57:24.437Z,3.18
2018-04-22T14:03:15.183Z,3.22
2018-04-22T14:09:06.162Z,2.61
2018-04-22T14:14:56.754Z,2.71
2018-04-22T14:20:47.461Z,2.55
2018-04-22T14:26:38.246Z,2.48
2018-04-22T14:32:28.989Z,2.86
2018-04-22T14:38:19.805Z,2.49
2018-04-22T14:44:10.546Z,2.68
2018-04-22T14:50:01.321Z,2.69
2018-04-22T14:55:52.701Z,2.8
2018-04-22T15:01:42.813Z,2.55
2018-04-22T15:07:33.630Z,2.54
2018-04-22T15:13:24.468Z,2.52
2018-04-22T15:19:15.802Z,2.5
2018-04-22T15:25:05.990Z,2.69
2018-04-22T15:30:56.829Z,2.54
2018-04-22T15:36:47.494Z,2.47
2018-04-22T15:42:38.288Z,2.82
2018-04-22T15:48:29.001Z,2.74
2018-04-22T15:54:19.757Z,2.63
2018-04-22T16:00:10.514Z,2.51
2018-04-22T16:06:01.246Z,3.08
2018-04-22T16:11:51.998Z,2.52
2018-04-22T16:17:42.774Z,2.53
2018-04-22T16:23:33.543Z,2.59
2018-04-22T16:29:24.363Z,3.09
2018-04-22T16:35:15.071Z,2.68
2018-04-22T16:41:05.836Z,4.54
2018-04-22T16:46:56.585Z,3.05
2018-04-22T16:52:47.358Z,2.72
2018-04-22T16:58:38.061Z,2.77
2018-04-22T17:04:28.885Z,2.81
2018-04-22T17:10:19.593Z,2.95
2018-04-22T17:16:10.364Z,3.8
2018-04-22T17:22:01.127Z,2.67
2018-04-22T17:27:51.851Z,2.57
2018-04-22T17:33:42.622Z,2.65
2018-04-22T17:39:33.359Z,3.04
2018-04-22T17:45:24.140Z,3.58
2018-04-22T17:51:14.864Z,3.21
2018-04-22T17:57:05.659Z,4.29
2018-04-22T18:02:56.363Z,4.09
2018-04-22T18:08:47.097Z,3.32
2018-04-22T18:14:37.923Z,3.84
2018-04-22T18:20:28.598Z,4.1
2018-04-22T18:26:19.380Z,4.14
2018-04-22T18:32:10.095Z,3.65
2018-04-22T18:38:00.807Z,4.6
2018-04-22T18:43:51.583Z,8.64
2018-04-22T18:49:42.275Z,20.04
2018-04-22T18:55:33.017Z,16.26
2018-04-22T19:01:23.759Z,14.83
2018-04-22T19:07:14.496Z,7.19
2018-04-22T19:13:05.252Z,4.29
2018-04-22T19:18:55.964Z,4.32
2018-04-22T19:24:46.638Z,4.02
2018-04-22T19:30:37.343Z,3.73
2018-04-22T19:36:28.075Z,3.4
2018-04-22T19:42:18.791Z,3.86
2018-04-22T19:48:09.492Z,4.53
2018-04-22T19:54:00.232Z,5.17
2018-04-22T19:59:50.917Z,18.52
2018-04-22T20:05:41.640Z,36.98
2018-04-22T20:11:32.414Z,11.85
2018-04-22T20:17:23.063Z,8.21
2018-04-22T20:23:13.776Z,6.44
2018-04-22T20:29:04.475Z,5.21
2018-04-22T20:34:55.202Z,5.25
2018-04-22T20:40:45.918Z,5.1
2018-04-22T20:46:36.611Z,4.49
2018-04-22T20:52:27.269Z,4.34
2018-04-22T20:58:17.980Z,4.27
2018-04-22T21:04:08.645Z,3.69
2018-04-22T21:09:59.350Z,4.53
2018-04-22T21:15:50.101Z,4.68
2018-04-22T21:21:41.028Z,3.86
2018-04-22T21:27:31.484Z,3.9
2018-04-22T21:33:22.191Z,4.14
2018-04-22T21:39:12.901Z,3.93
2018-04-22T21:45:03.531Z,4.11
2018-04-22T21:50:54.304Z,3.73
2018-04-22T21:56:45.703Z,4.12
2018-04-22T22:02:35.632Z,3.98
2018-04-22T22:08:26.318Z,4.24
2018-04-22T22:14:17.045Z,3.9
2018-04-22T22:20:07.790Z,3.64
2018-04-22T22:25:58.398Z,4.1
2018-04-22T22:31:49.103Z,4.63
2018-04-22T22:37:39.769Z,4.61
2018-04-22T22:43:30.592Z,4.25
2018-04-22T22:49:21.162Z,4.75
2018-04-22T22:55:11.873Z,5.12
2018-04-22T23:01:02.598Z,4.54
2018-04-22T23:06:53.206Z,4.9
2018-04-22T23:12:43.894Z,5.25
2018-04-22T23:18:34.565Z,4.49
2018-04-22T23:24:25.305Z,5
2018-04-22T23:30:16.006Z,5.34
2018-04-22T23:36:06.615Z,5.6
2018-04-22T23:41:57.325Z,5.09
2018-04-22T23:47:48.033Z,4.86
2018-04-22T23:53:38.688Z,5.35
2018-04-22T23:59:29.357Z,5.12
